Time;durP1;ratioP1;P1;durP2;ratioP2;P2;SDS_P1;SDS_P2;PMS_P1;PMS_P2;Temp;Humidity;BMP_temperature;BMP_pressure;BME280_temperature;BME280_humidity;BME280_pressure;Samples;Min_cycle;Max_cycle;Signal;HPM_P1;HPM_P2
2021/01/17 00:00:49;;;;;;;20.40;8.15;;;;;;;-3.81;81.36;100881.16;1660627;84;25850;-68
2021/01/17 00:03:16;;;;;;;23.45;8.15;;;;;;;-3.89;81.28;100882.75;1655609;84;26682;-70
2021/01/17 00:05:43;;;;;;;28.42;10.35;;;;;;;-4.16;81.19;100860.86;1657037;84;27499;-69
2021/01/17 00:08:11;;;;;;;20.55;7.90;;;;;;;-4.03;81.30;100892.53;1654404;84;25858;-68
2021/01/17 00:10:39;;;;;;;19.65;7.85;;;;;;;-4.12;81.05;100894.97;1654856;84;26274;-68
2021/01/17 00:13:09;;;;;;;22.75;9.10;;;;;;;-4.23;81.03;100899.11;1652752;84;26467;-68
2021/01/17 00:15:37;;;;;;;23.85;7.97;;;;;;;-4.37;80.82;100906.67;1652329;84;26175;-67
2021/01/17 00:18:05;;;;;;;21.95;8.18;;;;;;;-4.40;80.99;100909.66;1652693;84;28314;-69
2021/01/17 00:20:32;;;;;;;23.05;8.90;;;;;;;-4.43;80.96;100909.16;1652246;84;26384;-69
2021/01/17 00:23:05;;;;;;;22.00;8.48;;;;;;;-4.42;80.96;100918.77;1652755;84;26581;-69
2021/01/17 00:25:33;;;;;;;22.10;8.95;;;;;;;-4.49;80.79;100918.19;1651021;84;25956;-69
2021/01/17 00:28:01;;;;;;;23.25;8.75;;;;;;;-4.53;80.84;100918.97;1658641;84;25824;-69
2021/01/17 00:30:31;;;;;;;20.30;8.60;;;;;;;-4.57;80.78;100914.09;1655931;84;27460;-69
2021/01/17 00:32:59;;;;;;;25.88;8.53;;;;;;;-4.59;80.84;100917.52;1658854;84;26924;-69
2021/01/17 00:35:27;;;;;;;19.65;8.83;;;;;;;-4.68;80.63;100919.94;1661793;84;25825;-68
2021/01/17 00:37:55;;;;;;;25.37;10.25;;;;;;;-4.84;80.60;100908.67;1659081;84;26639;-69
2021/01/17 00:40:23;;;;;;;24.72;8.88;;;;;;;-4.88;80.57;100916.87;1660559;84;25715;-69
2021/01/17 00:42:50;;;;;;;23.32;8.63;;;;;;;-4.94;80.50;100921.53;1659794;84;28281;-69
2021/01/17 00:45:19;;;;;;;22.20;8.68;;;;;;;-5.00;80.50;100929.22;1660480;84;26757;-69
2021/01/17 00:47:47;;;;;;;23.22;7.87;;;;;;;-5.02;80.44;100930.03;1651489;84;25907;-69
2021/01/17 00:50:17;;;;;;;22.20;9.60;;;;;;;-5.02;80.48;100932.22;1661739;84;26524;-69
2021/01/17 00:52:44;;;;;;;22.90;9.10;;;;;;;-5.01;80.47;100939.22;1661908;84;25772;-69
2021/01/17 00:55:12;;;;;;;18.50;8.68;;;;;;;-5.00;80.46;100937.48;1650468;84;28434;-69
2021/01/17 00:57:39;;;;;;;26.50;9.15;;;;;;;-5.04;80.28;100938.27;1658885;84;25852;-69
2021/01/17 01:00:12;;;;;;;18.35;9.40;;;;;;;-5.09;80.19;100942.49;1662121;84;26641;-69
2021/01/17 01:02:40;;;;;;;20.12;7.45;;;;;;;-5.11;80.27;100946.38;1653408;84;26301;-69
2021/01/17 01:05:08;;;;;;;26.90;9.40;;;;;;;-5.12;80.21;100938.08;1649344;84;25897;-69
2021/01/17 01:07:35;;;;;;;29.35;9.70;;;;;;;-5.16;80.17;100940.16;1659334;84;27475;-69
2021/01/17 01:10:05;;;;;;;23.20;8.93;;;;;;;-5.15;80.14;100943.65;1656282;84;26058;-69
2021/01/17 01:12:31;;;;;;;21.52;7.87;;;;;;;-5.17;80.11;100946.23;1659293;84;25917;-69
2021/01/17 01:14:57;;;;;;;21.05;8.35;;;;;;;-5.20;80.08;100942.27;1656790;84;26991;-69
2021/01/17 01:17:26;;;;;;;22.82;8.23;;;;;;;-5.29;79.77;100949.45;1669124;84;25791;-69
2021/01/17 01:19:53;;;;;;;24.50;9.30;;;;;;;-5.44;79.68;100951.67;1690989;84;28012;-68
2021/01/17 01:22:19;;;;;;;19.75;8.30;;;;;;;-5.51;79.69;100950.16;1683869;84;25711;-69
2021/01/17 01:24:45;;;;;;;19.32;7.87;;;;;;;-5.57;79.66;100954.80;1661476;84;25623;-69
2021/01/17 01:27:12;;;;;;;19.57;7.75;;;;;;;-5.61;79.63;100948.61;1659743;84;25892;-69
2021/01/17 01:29:38;;;;;;;22.00;7.53;;;;;;;-5.62;79.58;100943.35;1660490;84;25905;-69
2021/01/17 01:32:06;;;;;;;25.77;8.08;;;;;;;-5.72;79.36;100951.78;1658939;84;27521;-69
2021/01/17 01:34:32;;;;;;;22.85;8.48;;;;;;;-5.75;79.52;100945.17;1655159;84;25853;-69
2021/01/17 01:36:58;;;;;;;24.57;9.40;;;;;;;-5.74;79.57;100949.13;1663035;84;25726;-69
2021/01/17 01:39:24;;;;;;;23.70;9.30;;;;;;;-5.70;79.61;100956.20;1664112;84;25901;-69
2021/01/17 01:41:50;;;;;;;19.52;8.53;;;;;;;-5.70;79.53;100956.20;1665281;84;25808;-69
2021/01/17 01:44:17;;;;;;;24.43;9.23;;;;;;;-5.67;79.57;100960.62;1664341;84;27497;-69
2021/01/17 01:46:43;;;;;;;24.15;9.63;;;;;;;-5.73;79.40;100962.64;1663474;84;25902;-69
2021/01/17 01:49:10;;;;;;;18.42;8.60;;;;;;;-5.76;79.44;100961.25;1664210;84;26396;-69
2021/01/17 01:51:38;;;;;;;24.47;9.45;;;;;;;-5.79;79.36;100968.12;1625294;85;25820;-69
2021/01/17 01:54:06;;;;;;;19.95;7.53;;;;;;;-5.83;79.33;100968.45;1631794;85;25859;-69
2021/01/17 01:56:33;;;;;;;21.93;8.93;;;;;;;-5.89;79.30;100965.70;1665801;84;27434;-69
2021/01/17 01:59:03;;;;;;;21.35;8.20;;;;;;;-5.96;79.21;100956.82;1648065;85;25976;-69
2021/01/17 02:01:29;;;;;;;18.25;8.50;;;;;;;-6.00;79.19;100958.00;1662700;84;25561;-69
2021/01/17 02:03:55;;;;;;;23.83;8.93;;;;;;;-6.00;79.31;100952.78;1664010;84;26413;-69
2021/01/17 02:06:26;;;;;;;18.35;8.20;;;;;;;-6.02;79.26;100961.87;1663765;84;25830;-69
2021/01/17 02:09:15;;;;;;;27.67;8.03;;;;;;;-6.05;79.12;100950.04;1648975;85;27356;-69
2021/01/17 02:12:12;;;;;;;22.93;8.28;;;;;;;-6.13;79.06;100950.66;1616753;84;26988;-68
2021/01/17 02:14:50;;;;;;;22.10;7.92;;;;;;;-6.20;79.07;100952.21;1662541;84;25816;-69
2021/01/17 02:17:22;;;;;;;17.32;7.37;;;;;;;-6.20;79.18;100953.94;1620744;86;26344;-69
2021/01/17 02:20:08;;;;;;;24.23;8.75;;;;;;;-6.23;79.05;100954.73;1635787;86;25793;-68
2021/01/17 02:22:58;;;;;;;24.18;9.03;;;;;;;-6.28;78.99;100960.23;1641051;85;27841;-68
2021/01/17 02:25:22;;;;;;;13.32;6.12;;;;;;;-6.31;78.98;100971.45;1663659;84;25931;-69
2021/01/17 02:27:49;;;;;;;16.97;6.30;;;;;;;-6.44;78.45;100971.93;1661571;84;25868;-69
2021/01/17 02:30:17;;;;;;;25.92;9.00;;;;;;;-6.56;78.47;100965.04;1662555;84;26401;-68
2021/01/17 02:32:56;;;;;;;17.95;6.90;;;;;;;-6.57;78.59;100965.87;1661635;84;26371;-69
2021/01/17 02:35:25;;;;;;;15.70;6.22;;;;;;;-6.52;78.67;100958.20;1648918;85;27554;-69
2021/01/17 02:38:24;;;;;;;23.35;8.05;;;;;;;-6.56;78.29;100962.02;1639867;84;25779;-67
2021/01/17 02:41:18;;;;;;;17.27;6.62;;;;;;;-6.65;78.41;100963.45;1607381;86;26715;-67
2021/01/17 02:43:46;;;;;;;15.50;6.70;;;;;;;-6.68;78.39;100962.94;1672239;84;25999;-67
2021/01/17 02:46:12;;;;;;;18.50;7.35;;;;;;;-6.80;78.21;100964.28;1639162;85;26611;-67
2021/01/17 02:48:38;;;;;;;19.98;7.47;;;;;;;-6.88;78.16;100972.74;1614671;87;27477;-68
2021/01/17 02:51:05;;;;;;;14.40;7.15;;;;;;;-7.03;77.93;100979.18;1640582;84;25725;-67
2021/01/17 02:53:44;;;;;;;19.82;6.78;;;;;;;-7.17;77.91;100977.84;1634091;85;25967;-67
2021/01/17 02:56:17;;;;;;;17.02;6.60;;;;;;;-7.30;77.84;100979.15;1611918;86;26648;-68
2021/01/17 02:58:48;;;;;;;19.80;8.53;;;;;;;-7.42;77.88;100977.44;1638297;85;26215;-67
2021/01/17 03:01:21;;;;;;;15.08;5.90;;;;;;;-7.52;77.86;100982.73;1654127;84;28102;-66
2021/01/17 03:03:49;;;;;;;22.30;7.75;;;;;;;-7.63;77.78;100981.06;1652703;84;25806;-67
2021/01/17 03:06:16;;;;;;;17.77;7.25;;;;;;;-7.74;77.70;100985.01;1667568;84;25825;-67
2021/01/17 03:08:42;;;;;;;16.85;7.08;;;;;;;-7.77;77.81;100984.90;1635778;85;26141;-67
2021/01/17 03:11:08;;;;;;;22.42;8.68;;;;;;;-7.82;77.83;100986.48;1612747;87;25815;-67
2021/01/17 03:13:37;;;;;;;19.27;8.00;;;;;;;-7.79;77.95;100984.38;1643101;85;27790;-67
2021/01/17 03:16:06;;;;;;;21.90;7.58;;;;;;;-7.77;77.87;100986.20;1654260;84;25875;-67
2021/01/17 03:18:35;;;;;;;20.62;6.12;;;;;;;-7.80;77.86;100987.42;1658537;84;25854;-66
2021/01/17 03:21:01;;;;;;;19.73;7.33;;;;;;;-7.77;77.83;100990.10;1660019;84;26311;-67
2021/01/17 03:23:27;;;;;;;25.23;8.40;;;;;;;-7.86;77.58;101006.72;1655174;84;25829;-67
2021/01/17 03:25:54;;;;;;;27.80;9.40;;;;;;;-7.94;77.60;101006.85;1654847;84;27573;-67
2021/01/17 03:28:20;;;;;;;16.82;6.92;;;;;;;-7.96;77.67;101001.59;1660585;84;25744;-67
2021/01/17 03:30:46;;;;;;;24.95;8.83;;;;;;;-7.94;77.64;101004.25;1653830;84;25858;-67
2021/01/17 03:33:12;;;;;;;28.70;9.83;;;;;;;-7.98;77.63;101007.57;1655868;84;26443;-67
2021/01/17 03:35:38;;;;;;;32.28;11.18;;;;;;;-7.98;77.60;101011.47;1652277;84;26498;-67
2021/01/17 03:38:04;;;;;;;20.45;7.97;;;;;;;-8.02;77.63;101008.28;1645285;85;27840;-67
2021/01/17 03:40:30;;;;;;;26.75;9.70;;;;;;;-8.01;77.64;101016.56;1657865;84;26504;-67
2021/01/17 03:42:56;;;;;;;20.50;8.53;;;;;;;-8.13;77.42;101010.48;1667373;84;25860;-67
2021/01/17 03:45:22;;;;;;;24.85;8.50;;;;;;;-8.23;77.42;101014.45;1663454;84;36240;-67
2021/01/17 03:47:48;;;;;;;21.12;7.42;;;;;;;-8.30;77.47;101016.36;1649250;85;25911;-67
2021/01/17 03:50:14;;;;;;;21.90;7.92;;;;;;;-8.33;77.47;101016.27;1662833;84;27507;-67
2021/01/17 03:52:40;;;;;;;24.77;9.25;;;;;;;-8.45;77.35;101015.80;1664370;84;33544;-66
2021/01/17 03:55:07;;;;;;;29.30;8.85;;;;;;;-8.56;77.32;101017.09;1662034;84;26232;-67
2021/01/17 03:57:34;;;;;;;27.05;10.25;;;;;;;-8.58;77.49;101013.14;1662073;84;26000;-67
2021/01/17 03:59:59;;;;;;;31.85;10.20;;;;;;;-8.60;77.43;101015.20;1661092;84;26537;-67
2021/01/17 04:02:25;;;;;;;31.12;11.53;;;;;;;-8.65;77.43;101021.93;1662847;84;27489;-66
2021/01/17 04:04:52;;;;;;;23.60;8.18;;;;;;;-8.72;77.37;101023.40;1659849;84;25746;-67
2021/01/17 04:07:18;;;;;;;26.50;9.10;;;;;;;-8.81;77.23;101035.12;1658377;84;30483;-66
2021/01/17 04:09:44;;;;;;;25.48;8.23;;;;;;;-9.02;77.08;101030.84;1664149;84;25925;-66
2021/01/17 04:12:10;;;;;;;23.77;8.50;;;;;;;-9.16;77.00;101029.38;1646458;85;25880;-66
2021/01/17 04:14:36;;;;;;;26.97;9.93;;;;;;;-9.27;77.12;101041.91;1663844;84;27475;-66
2021/01/17 04:17:02;;;;;;;25.10;8.25;;;;;;;-9.33;77.15;101036.87;1664898;84;25775;-66
2021/01/17 04:19:28;;;;;;;23.02;8.10;;;;;;;-9.35;77.13;101034.62;1663489;84;25796;-66
2021/01/17 04:21:54;;;;;;;28.10;9.10;;;;;;;-9.48;76.91;101040.98;1652286;85;25847;-66
2021/01/17 04:24:20;;;;;;;25.10;8.23;;;;;;;-9.62;76.78;101041.69;1664179;84;25874;-66
2021/01/17 04:26:46;;;;;;;25.25;7.75;;;;;;;-9.69;76.90;101043.54;1660391;84;28023;-66
2021/01/17 04:29:13;;;;;;;22.95;7.42;;;;;;;-9.72;76.83;101040.81;1662671;84;25779;-66
2021/01/17 04:31:44;;;;;;;21.60;6.92;;;;;;;-9.78;76.72;101042.24;1658953;84;25756;-66
2021/01/17 04:34:11;;;;;;;24.75;7.50;;;;;;;-9.84;76.56;101042.86;1659483;84;26486;-66
2021/01/17 04:36:38;;;;;;;23.52;8.68;;;;;;;-9.93;76.54;101046.34;1646484;84;25871;-65
2021/01/17 04:39:06;;;;;;;22.77;7.53;;;;;;;-10.03;76.41;101051.52;1612701;87;27503;-65
2021/01/17 04:41:35;;;;;;;29.12;8.53;;;;;;;-10.08;76.46;101046.53;1654590;86;25831;-66
2021/01/17 04:44:04;;;;;;;23.05;6.70;;;;;;;-10.15;76.34;101051.84;1638668;87;25725;-66
2021/01/17 04:46:31;;;;;;;27.62;9.58;;;;;;;-10.15;76.46;101054.84;1638592;87;26116;-65
2021/01/17 04:49:03;;;;;;;25.65;8.18;;;;;;;-10.20;76.35;101055.08;1654678;86;25716;-66
2021/01/17 04:51:30;;;;;;;37.20;8.13;;;;;;;-10.24;76.37;101060.53;1638697;87;28226;-67
2021/01/17 04:54:02;;;;;;;30.85;9.80;;;;;;;-10.26;76.32;101062.56;1654685;86;26052;-67
2021/01/17 04:56:31;;;;;;;24.27;8.15;;;;;;;-10.31;76.33;101064.95;1638652;87;25740;-66
2021/01/17 04:59:13;;;;;;;22.82;7.62;;;;;;;-10.34;76.33;101065.20;1638679;87;26560;-67
2021/01/17 05:01:53;;;;;;;29.10;8.53;;;;;;;-10.34;76.37;101066.09;1654774;86;25636;-67
2021/01/17 05:04:45;;;;;;;29.55;9.43;;;;;;;-10.34;76.38;101068.69;1639001;87;27655;-67
2021/01/17 05:07:19;;;;;;;37.83;8.50;;;;;;;-10.35;76.36;101071.20;1653487;86;25960;-67
2021/01/17 05:10:06;;;;;;;31.33;11.03;;;;;;;-10.35;76.37;101068.61;1638115;86;25662;-68
2021/01/17 05:12:51;;;;;;;29.45;9.13;;;;;;;-10.39;76.33;101070.58;1654779;86;25989;-68
2021/01/17 05:15:22;;;;;;;30.43;8.68;;;;;;;-10.48;76.23;101070.19;1623373;88;25757;-68
2021/01/17 05:17:48;;;;;;;42.08;11.22;;;;;;;-10.53;76.29;101069.56;1623185;88;28270;-69
2021/01/17 05:20:16;;;;;;;23.73;8.45;;;;;;;-10.55;76.32;101065.12;1623127;88;26240;-69
2021/01/17 05:22:47;;;;;;;26.12;8.60;;;;;;;-10.59;76.24;101061.91;1622674;86;25737;-69
2021/01/17 05:25:13;;;;;;;20.15;8.65;;;;;;;-10.65;76.12;101063.79;1656734;84;26288;-69
2021/01/17 05:27:45;;;;;;;38.10;11.30;;;;;;;-10.72;76.20;101066.02;1636702;85;25772;-69
2021/01/17 05:30:12;;;;;;;36.90;10.10;;;;;;;-10.76;76.15;101069.27;1632021;86;28650;-69
2021/01/17 05:32:38;;;;;;;34.15;10.65;;;;;;;-10.81;76.19;101080.69;1656342;84;25884;-68
2021/01/17 05:35:06;;;;;;;34.63;12.15;;;;;;;-10.78;76.30;101077.37;1626739;86;26392;-68
2021/01/17 05:37:32;;;;;;;27.70;10.03;;;;;;;-10.76;76.33;101075.73;1640971;85;25968;-68
2021/01/17 05:40:03;;;;;;;32.33;9.75;;;;;;;-10.74;76.34;101078.00;1651021;85;25816;-68
2021/01/17 05:42:37;;;;;;;37.45;11.65;;;;;;;-10.78;76.21;101079.95;1661826;84;27699;-68
2021/01/17 05:45:14;;;;;;;23.25;6.62;;;;;;;-10.86;76.12;101080.47;1659978;84;25839;-66
2021/01/17 05:47:43;;;;;;;31.25;9.28;;;;;;;-10.89;76.19;101083.31;1661886;84;25990;-66
2021/01/17 05:50:13;;;;;;;34.23;10.97;;;;;;;-10.93;76.25;101092.62;1627426;85;25890;-67
2021/01/17 05:52:40;;;;;;;29.98;9.18;;;;;;;-10.97;76.18;101098.47;1660307;84;25405;-68
2021/01/17 05:55:08;;;;;;;25.95;8.38;;;;;;;-10.99;76.22;101096.61;1660381;84;28210;-66
2021/01/17 05:57:35;;;;;;;39.03;9.95;;;;;;;-11.09;76.10;101097.85;1660588;84;25828;-66
2021/01/17 06:00:04;;;;;;;31.90;8.80;;;;;;;-11.19;76.06;101101.67;1660199;84;25863;-67
2021/01/17 06:02:31;;;;;;;30.08;9.65;;;;;;;-11.29;75.94;101106.30;1663798;84;26466;-66
2021/01/17 06:04:59;;;;;;;28.00;9.13;;;;;;;-11.32;76.12;101113.50;1665938;84;25725;-67
2021/01/17 06:07:29;;;;;;;37.58;10.82;;;;;;;-11.34;76.10;101112.94;1662038;83;27820;-67
2021/01/17 06:10:01;;;;;;;34.10;9.13;;;;;;;-11.33;76.16;101121.19;1646283;85;26399;-66
2021/01/17 06:12:34;;;;;;;29.25;8.93;;;;;;;-11.37;76.12;101122.73;1657309;84;26147;-67
2021/01/17 06:15:11;;;;;;;29.95;9.80;;;;;;;-11.36;76.13;101130.97;1662611;84;25878;-66
2021/01/17 06:17:46;;;;;;;28.98;8.28;;;;;;;-11.38;76.11;101130.41;1663021;84;25853;-67
2021/01/17 06:20:23;;;;;;;26.00;7.58;;;;;;;-11.42;76.10;101142.30;1661520;84;28355;-69
2021/01/17 06:22:59;;;;;;;31.73;9.53;;;;;;;-11.44;76.08;101143.02;1663174;84;25880;-68
2021/01/17 06:25:30;;;;;;;18.70;6.53;;;;;;;-11.48;76.09;101147.14;1662257;84;25801;-68
2021/01/17 06:28:10;;;;;;;18.65;6.28;;;;;;;-11.54;75.97;101160.64;1659923;84;26631;-67
2021/01/17 06:30:38;;;;;;;25.45;7.40;;;;;;;-11.68;75.83;101152.55;1662545;84;25624;-67
2021/01/17 06:33:06;;;;;;;27.77;8.43;;;;;;;-11.74;75.89;101159.98;1662278;84;28402;-67
2021/01/17 06:35:37;;;;;;;32.90;9.28;;;;;;;-11.79;75.85;101161.87;1661445;84;26663;-67
2021/01/17 06:38:21;;;;;;;28.95;8.23;;;;;;;-11.80;75.85;101162.27;1663639;84;25945;-67
2021/01/17 06:40:49;;;;;;;27.42;8.75;;;;;;;-11.83;75.80;101167.27;1662701;84;26661;-67
2021/01/17 06:43:16;;;;;;;23.10;7.45;;;;;;;-11.86;75.81;101173.17;1660817;84;25924;-67
2021/01/17 06:45:46;;;;;;;29.32;8.55;;;;;;;-11.85;75.91;101182.70;1663754;84;27497;-67
2021/01/17 06:48:23;;;;;;;29.35;8.20;;;;;;;-11.84;75.88;101188.36;1661311;84;26001;-67
2021/01/17 06:50:50;;;;;;;27.13;8.98;;;;;;;-11.83;75.93;101186.26;1664497;84;25866;-67
2021/01/17 06:53:25;;;;;;;33.38;10.58;;;;;;;-11.81;75.86;101194.09;1663633;84;25824;-67
2021/01/17 06:56:14;;;;;;;27.20;8.83;;;;;;;-11.83;75.87;101197.00;1661700;84;25854;-67
2021/01/17 06:58:41;;;;;;;37.20;10.70;;;;;;;-11.83;75.87;101195.30;1661623;84;27470;-67
2021/01/17 07:01:08;;;;;;;26.25;8.40;;;;;;;-11.84;75.90;101199.09;1646053;85;25707;-67
2021/01/17 07:04:17;;;;;;;24.07;7.28;;;;;;;-11.88;75.77;101207.09;1661213;84;25795;-68
2021/01/17 07:07:12;;;;;;;19.00;6.95;;;;;;;-11.91;75.69;101206.03;1658952;84;26113;-67
2021/01/17 07:09:59;;;;;;;23.22;7.50;;;;;;;-11.99;75.67;101218.53;1664190;84;25894;-68
2021/01/17 07:13:00;;;;;;;17.87;6.80;;;;;;;-12.11;75.59;101210.50;1669868;84;27500;-68
2021/01/17 07:15:38;;;;;;;28.65;9.08;;;;;;;-12.16;75.67;101212.42;1664193;84;26486;-68
2021/01/17 07:18:13;;;;;;;27.15;9.23;;;;;;;-12.15;75.71;101214.20;1657894;84;25839;-68
2021/01/17 07:20:47;;;;;;;22.90;6.97;;;;;;;-12.14;75.76;101221.14;1605177;87;26406;-67
2021/01/17 07:23:18;;;;;;;32.28;9.30;;;;;;;-12.08;75.72;101221.89;1662180;84;26676;-67
2021/01/17 07:25:48;;;;;;;21.40;7.40;;;;;;;-12.15;75.62;101218.47;1644253;85;27523;-68
2021/01/17 07:28:17;;;;;;;26.93;8.63;;;;;;;-12.17;75.61;101217.09;1663454;84;25867;-68
2021/01/17 07:31:04;;;;;;;27.67;8.23;;;;;;;-12.23;75.53;101221.92;1647737;85;25766;-67
2021/01/17 07:33:42;;;;;;;24.18;8.15;;;;;;;-12.26;75.56;101225.62;1661339;84;26148;-67
2021/01/17 07:36:10;;;;;;;26.42;9.03;;;;;;;-12.28;75.54;101219.47;1661251;84;25814;-67
2021/01/17 07:38:45;;;;;;;23.12;8.80;;;;;;;-12.25;75.69;101219.65;1655340;84;27700;-67
2021/01/17 07:41:14;;;;;;;30.52;9.15;;;;;;;-12.19;75.73;101225.16;1658079;84;26103;-67
2021/01/17 07:43:43;;;;;;;31.02;9.55;;;;;;;-12.16;75.75;101227.03;1660999;84;26213;-67
2021/01/17 07:46:17;;;;;;;34.10;10.08;;;;;;;-12.10;75.77;101235.53;1659486;84;25824;-68
2021/01/17 07:48:48;;;;;;;32.35;11.12;;;;;;;-12.08;75.75;101240.38;1651882;84;26588;-68
2021/01/17 07:51:15;;;;;;;23.80;8.45;;;;;;;-12.02;75.81;101245.89;1653800;84;28661;-68
2021/01/17 07:54:11;;;;;;;38.13;10.80;;;;;;;-12.03;75.57;101244.11;1652889;84;26956;-68
2021/01/17 07:56:38;;;;;;;28.23;9.60;;;;;;;-12.07;75.66;101243.45;1656610;84;26288;-68
2021/01/17 07:59:08;;;;;;;21.97;8.83;;;;;;;-12.08;75.63;101250.31;1653453;84;26588;-68
2021/01/17 08:01:40;;;;;;;27.03;9.10;;;;;;;-12.10;75.66;101244.57;1659424;84;26003;-68
2021/01/17 08:04:16;;;;;;;37.78;10.15;;;;;;;-12.08;75.71;101246.84;1660491;83;27793;-68
2021/01/17 08:06:47;;;;;;;34.45;11.43;;;;;;;-12.09;75.63;101248.94;1653421;84;26193;-68
2021/01/17 08:09:33;;;;;;;42.40;12.33;;;;;;;-12.09;75.72;101256.28;1647862;84;25945;-68
2021/01/17 08:12:00;;;;;;;33.38;10.70;;;;;;;-12.06;75.73;101254.27;1638512;84;26435;-68
2021/01/17 08:14:37;;;;;;;34.45;11.05;;;;;;;-12.04;75.75;101256.55;1653856;84;26248;-68
2021/01/17 08:17:18;;;;;;;26.40;8.85;;;;;;;-12.04;75.67;101266.88;1653897;84;27496;-68
2021/01/17 08:20:02;;;;;;;36.65;11.50;;;;;;;-12.03;75.74;101262.20;1659516;84;25812;-68
2021/01/17 08:22:33;;;;;;;41.37;15.23;;;;;;;-12.01;75.75;101264.06;1641793;84;26294;-68
2021/01/17 08:25:05;;;;;;;40.78;12.98;;;;;;;-12.00;75.75;101261.97;1661722;84;26280;-69
2021/01/17 08:27:41;;;;;;;37.88;12.20;;;;;;;-11.90;75.89;101255.22;1662651;84;25959;-69
2021/01/17 08:30:16;;;;;;;48.40;14.13;;;;;;;-11.81;75.94;101253.55;1647215;84;28005;-70
2021/01/17 08:32:54;;;;;;;48.50;13.53;;;;;;;-11.76;75.92;101259.83;1653592;84;26542;-69
2021/01/17 08:35:26;;;;;;;40.15;12.45;;;;;;;-11.69;75.90;101259.77;1649830;84;25962;-70
2021/01/17 08:38:00;;;;;;;49.18;13.08;;;;;;;-11.60;75.98;101262.86;1656230;84;27893;-69
2021/01/17 08:40:35;;;;;;;39.33;12.10;;;;;;;-11.57;75.90;101266.91;1632837;86;25869;-71
2021/01/17 08:43:13;;;;;;;37.40;13.13;;;;;;;-11.57;75.87;101282.02;1636703;85;27664;-69
2021/01/17 08:45:48;;;;;;;44.18;13.08;;;;;;;-11.54;75.91;101280.90;1659693;84;25817;-67
2021/01/17 08:48:22;;;;;;;43.68;14.47;;;;;;;-11.50;75.94;101279.38;1662899;84;25917;-67
2021/01/17 08:50:56;;;;;;;56.08;16.45;;;;;;;-11.45;75.98;101288.27;1668342;83;25939;-71
2021/01/17 08:53:32;;;;;;;48.42;14.55;;;;;;;-11.42;75.95;101287.14;1632300;86;25882;-68
2021/01/17 08:56:18;;;;;;;46.42;14.13;;;;;;;-11.42;75.88;101297.89;1669875;84;27531;-66
2021/01/17 08:58:46;;;;;;;35.70;12.00;;;;;;;-11.38;75.97;101303.72;1668259;84;26051;-67
2021/01/17 09:01:15;;;;;;;36.13;10.10;;;;;;;-11.32;76.00;101295.89;1654126;84;26120;-66
2021/01/17 09:03:51;;;;;;;37.63;12.75;;;;;;;-11.34;75.83;101308.26;1632657;86;25933;-66
2021/01/17 09:06:25;;;;;;;43.85;14.43;;;;;;;-11.43;75.80;101305.17;1627407;86;25903;-67
2021/01/17 09:09:01;;;;;;;49.45;14.47;;;;;;;-11.35;75.98;101302.59;1632577;86;27688;-67
2021/01/17 09:11:36;;;;;;;32.00;11.70;;;;;;;-11.31;75.97;101312.31;1597399;87;26539;-67
2021/01/17 09:14:25;;;;;;;40.78;13.28;;;;;;;-11.28;75.91;101318.94;1666552;84;25823;-67
2021/01/17 09:17:08;;;;;;;46.90;14.20;;;;;;;-11.25;75.96;101318.70;1666813;84;26246;-67
2021/01/17 09:19:37;;;;;;;46.98;14.40;;;;;;;-11.22;75.91;101323.16;1664131;84;25810;-67
2021/01/17 09:22:07;;;;;;;50.67;16.77;;;;;;;-11.18;76.03;101323.81;1610177;86;28064;-66
2021/01/17 09:24:37;;;;;;;40.10;11.78;;;;;;;-11.12;76.03;101321.55;1606038;87;25813;-66
2021/01/17 09:27:06;;;;;;;46.20;14.55;;;;;;;-11.01;76.10;101328.20;1648528;84;26450;-65
2021/01/17 09:29:43;;;;;;;36.23;12.73;;;;;;;-10.99;76.05;101324.40;1656925;84;26936;-66
2021/01/17 09:32:15;;;;;;;44.85;13.18;;;;;;;-10.94;76.08;101329.02;1654077;84;25824;-66
2021/01/17 09:34:45;;;;;;;44.98;15.72;;;;;;;-10.84;76.15;101330.39;1658665;84;27508;-66
2021/01/17 09:37:19;;;;;;;44.55;16.40;;;;;;;-10.79;76.11;101331.94;1659997;84;25754;-66
2021/01/17 09:39:50;;;;;;;73.20;21.20;;;;;;;-10.69;76.19;101333.80;1654344;84;25829;-66
2021/01/17 09:42:20;;;;;;;52.08;18.62;;;;;;;-10.64;76.04;101336.62;1650006;85;26321;-66
2021/01/17 09:45:02;;;;;;;54.40;19.57;;;;;;;-10.70;75.94;101336.30;1668304;84;26208;-66
2021/01/17 09:47:29;;;;;;;53.00;15.30;;;;;;;-10.69;76.04;101331.61;1665062;84;27489;-66
2021/01/17 09:49:58;;;;;;;40.70;13.85;;;;;;;-10.60;76.07;101330.80;1661566;84;26094;-67
2021/01/17 09:52:25;;;;;;;52.00;16.27;;;;;;;-10.62;75.98;101331.12;1657951;84;25855;-67
2021/01/17 09:54:54;;;;;;;56.42;17.50;;;;;;;-10.57;76.09;101323.18;1666580;84;26232;-67
2021/01/17 09:57:24;;;;;;;42.48;13.25;;;;;;;-10.48;76.12;101327.55;1642828;85;25802;-67
2021/01/17 09:59:54;;;;;;;54.35;17.37;;;;;;;-10.43;76.05;101331.26;1663870;84;28329;-67
2021/01/17 10:02:27;;;;;;;65.03;17.17;;;;;;;-10.42;76.04;101333.05;1645235;85;25861;-68
2021/01/17 10:04:53;;;;;;;54.23;13.90;;;;;;;-10.41;75.92;101330.94;1658593;84;25875;-68
2021/01/17 10:07:21;;;;;;;46.10;14.25;;;;;;;-10.40;75.97;101326.23;1656557;84;26321;-67
2021/01/17 10:09:50;;;;;;;59.55;18.85;;;;;;;-10.37;76.01;101327.66;1663407;84;25803;-69
2021/01/17 10:12:26;;;;;;;57.27;18.12;;;;;;;-10.32;76.07;101327.48;1663244;84;28224;-68
2021/01/17 10:14:53;;;;;;;57.13;19.25;;;;;;;-10.20;76.15;101328.52;1649165;85;25993;-69
2021/01/17 10:17:19;;;;;;;59.20;19.92;;;;;;;-10.08;76.17;101328.20;1629299;86;25733;-69
2021/01/17 10:19:47;;;;;;;55.90;18.57;;;;;;;-9.97;76.23;101333.52;1664397;84;25791;-67
2021/01/17 10:22:16;;;;;;;57.23;19.02;;;;;;;-9.85;76.24;101332.83;1630545;85;25793;-67
2021/01/17 10:24:43;;;;;;;69.20;19.67;;;;;;;-9.77;76.14;101330.20;1605065;87;28198;-66
2021/01/17 10:27:11;;;;;;;63.65;18.92;;;;;;;-9.72;76.11;101330.43;1664928;84;26436;-66
2021/01/17 10:29:41;;;;;;;44.18;16.12;;;;;;;-9.68;76.06;101329.77;1662449;84;26071;-67
2021/01/17 10:32:13;;;;;;;53.65;17.77;;;;;;;-9.59;76.16;101325.02;1647067;85;25854;-67
2021/01/17 10:34:42;;;;;;;61.30;20.30;;;;;;;-9.47;76.25;101331.20;1660187;84;25889;-68
2021/01/17 10:37:12;;;;;;;79.80;21.97;;;;;;;-9.36;76.26;101324.82;1645290;85;27417;-68
2021/01/17 10:39:41;;;;;;;49.77;16.70;;;;;;;-9.30;76.17;101321.22;1659053;84;25987;-67
2021/01/17 10:42:14;;;;;;;49.53;15.55;;;;;;;-9.23;76.16;101324.58;1654878;84;26081;-67
2021/01/17 10:44:58;;;;;;;47.85;16.55;;;;;;;-9.22;76.11;101323.77;1657188;84;26149;-68
2021/01/17 10:48:05;;;;;;;65.80;20.45;;;;;;;-9.17;76.13;101321.86;1652517;84;25833;-68
2021/01/17 10:50:49;;;;;;;53.17;17.82;;;;;;;-9.19;75.96;101330.39;1627249;86;27493;-67
2021/01/17 10:53:20;;;;;;;59.18;17.75;;;;;;;-9.12;76.11;101335.05;1655962;84;26036;-69
2021/01/17 10:55:53;;;;;;;53.60;17.05;;;;;;;-9.02;76.11;101338.55;1656766;84;25879;-68
2021/01/17 10:58:27;;;;;;;43.05;12.98;;;;;;;-8.91;76.15;101337.34;1650974;84;26706;-70
2021/01/17 11:00:54;;;;;;;45.45;15.08;;;;;;;-8.88;76.08;101327.09;1657899;84;25868;-66
2021/01/17 11:03:35;;;;;;;53.40;19.75;;;;;;;-8.95;75.88;101328.05;1658934;84;27448;-69
2021/01/17 11:06:13;;;;;;;47.10;15.45;;;;;;;-8.96;75.93;101325.85;1647724;84;25862;-69
2021/01/17 11:08:46;;;;;;;44.63;13.90;;;;;;;-8.86;76.16;101321.55;1655904;84;25851;-68
2021/01/17 11:11:14;;;;;;;40.88;13.38;;;;;;;-8.69;76.23;101318.83;1653540;84;26842;-68
2021/01/17 11:13:41;;;;;;;36.30;12.73;;;;;;;-8.62;76.32;101315.68;1654447;84;26738;-67
2021/01/17 11:16:09;;;;;;;51.18;15.72;;;;;;;-8.47;76.21;101312.45;1666837;84;27578;-67
2021/01/17 11:18:38;;;;;;;48.80;13.98;;;;;;;-8.44;76.05;101316.48;1690144;84;25946;-68
2021/01/17 11:21:06;;;;;;;51.75;16.57;;;;;;;-8.47;75.92;101320.25;1690309;84;25639;-67
2021/01/17 11:23:32;;;;;;;58.33;16.32;;;;;;;-8.44;75.95;101325.59;1666532;84;26898;-68
2021/01/17 11:26:05;;;;;;;50.17;15.80;;;;;;;-8.43;75.84;101318.67;1654802;84;25738;-67
2021/01/17 11:28:33;;;;;;;51.00;15.25;;;;;;;-8.44;75.88;101326.89;1654238;84;28021;-67